sensor_id;sensor_type;location;lat;lon;timestamp;P1;durP1;ratioP1;P2;durP2;ratioP2
6177;SDS011;3122;48.208;11.174;2023-02-25T00:00:17;9.23;;;5.77;;
6177;SDS011;3122;48.208;11.174;2023-02-25T00:05:18;9.87;;;6.07;;
6177;SDS011;3122;48.208;11.174;2023-02-25T00:10:19;10.83;;;6.40;;
6177;SDS011;3122;48.208;11.174;2023-02-25T00:15:20;14.03;;;7.07;;
6177;SDS011;3122;48.208;11.174;2023-02-25T00:20:21;11.80;;;7.27;;
6177;SDS011;3122;48.208;11.174;2023-02-25T00:25:21;12.50;;;7.87;;
6177;SDS011;3122;48.208;11.174;2023-02-25T00:30:22;17.90;;;7.47;;
6177;SDS011;3122;48.208;11.174;2023-02-25T00:35:22;8.67;;;6.00;;
6177;SDS011;3122;48.208;11.174;2023-02-25T00:40:23;12.70;;;6.53;;
6177;SDS011;3122;48.208;11.174;2023-02-25T00:45:24;8.27;;;5.17;;
6177;SDS011;3122;48.208;11.174;2023-02-25T00:50:24;11.27;;;6.30;;
6177;SDS011;3122;48.208;11.174;2023-02-25T00:55:25;6.97;;;4.90;;
6177;SDS011;3122;48.208;11.174;2023-02-25T01:00:32;12.73;;;5.20;;
6177;SDS011;3122;48.208;11.174;2023-02-25T01:05:32;7.60;;;4.50;;
6177;SDS011;3122;48.208;11.174;2023-02-25T01:10:33;7.10;;;5.50;;
6177;SDS011;3122;48.208;11.174;2023-02-25T01:15:33;9.63;;;5.17;;
6177;SDS011;3122;48.208;11.174;2023-02-25T01:20:37;8.07;;;5.50;;
6177;SDS011;3122;48.208;11.174;2023-02-25T01:25:39;6.43;;;4.90;;
6177;SDS011;3122;48.208;11.174;2023-02-25T01:30:39;6.97;;;4.60;;
6177;SDS011;3122;48.208;11.174;2023-02-25T01:35:40;6.90;;;4.23;;
6177;SDS011;3122;48.208;11.174;2023-02-25T01:45:42;8.40;;;3.80;;
6177;SDS011;3122;48.208;11.174;2023-02-25T01:50:46;5.27;;;3.83;;
6177;SDS011;3122;48.208;11.174;2023-02-25T01:55:53;4.30;;;3.50;;
6177;SDS011;3122;48.208;11.174;2023-02-25T03:27:56;5.83;;;3.93;;
6177;SDS011;3122;48.208;11.174;2023-02-25T03:33:03;6.60;;;4.60;;
6177;SDS011;3122;48.208;11.174;2023-02-25T05:13:28;12.83;;;6.90;;
6177;SDS011;3122;48.208;11.174;2023-02-25T05:18:29;13.80;;;7.20;;
6177;SDS011;3122;48.208;11.174;2023-02-25T05:23:30;15.40;;;7.40;;
6177;SDS011;3122;48.208;11.174;2023-02-25T05:28:31;13.60;;;7.80;;
6177;SDS011;3122;48.208;11.174;2023-02-25T05:33:32;12.73;;;7.50;;
6177;SDS011;3122;48.208;11.174;2023-02-25T05:38:34;12.27;;;7.80;;
6177;SDS011;3122;48.208;11.174;2023-02-25T05:43:36;14.57;;;8.27;;
6177;SDS011;3122;48.208;11.174;2023-02-25T05:48:39;12.67;;;8.10;;
6177;SDS011;3122;48.208;11.174;2023-02-25T05:53:40;13.53;;;8.47;;
6177;SDS011;3122;48.208;11.174;2023-02-25T05:58:43;12.83;;;7.90;;
6177;SDS011;3122;48.208;11.174;2023-02-25T06:03:46;17.00;;;7.80;;
6177;SDS011;3122;48.208;11.174;2023-02-25T06:08:47;13.43;;;8.33;;
6177;SDS011;3122;48.208;11.174;2023-02-25T06:13:48;15.57;;;7.53;;
6177;SDS011;3122;48.208;11.174;2023-02-25T06:18:50;14.43;;;7.90;;
6177;SDS011;3122;48.208;11.174;2023-02-25T06:23:51;14.07;;;7.97;;
6177;SDS011;3122;48.208;11.174;2023-02-25T06:28:52;16.80;;;8.87;;
6177;SDS011;3122;48.208;11.174;2023-02-25T06:33:53;13.63;;;6.73;;
6177;SDS011;3122;48.208;11.174;2023-02-25T06:38:54;15.30;;;7.60;;
6177;SDS011;3122;48.208;11.174;2023-02-25T06:43:54;14.77;;;7.57;;
6177;SDS011;3122;48.208;11.174;2023-02-25T06:48:55;11.17;;;7.13;;
6177;SDS011;3122;48.208;11.174;2023-02-25T06:53:56;13.43;;;8.00;;
6177;SDS011;3122;48.208;11.174;2023-02-25T06:58:57;15.70;;;9.10;;
6177;SDS011;3122;48.208;11.174;2023-02-25T07:03:58;13.90;;;7.90;;
6177;SDS011;3122;48.208;11.174;2023-02-25T07:08:59;13.10;;;7.27;;
6177;SDS011;3122;48.208;11.174;2023-02-25T07:13:59;13.07;;;7.90;;
6177;SDS011;3122;48.208;11.174;2023-02-25T07:19:01;18.73;;;11.50;;
6177;SDS011;3122;48.208;11.174;2023-02-25T07:24:01;16.90;;;8.57;;
6177;SDS011;3122;48.208;11.174;2023-02-25T07:29:02;18.30;;;9.87;;
6177;SDS011;3122;48.208;11.174;2023-02-25T07:34:04;14.13;;;6.60;;
6177;SDS011;3122;48.208;11.174;2023-02-25T07:39:06;8.37;;;4.70;;
6177;SDS011;3122;48.208;11.174;2023-02-25T07:44:09;8.60;;;4.80;;
6177;SDS011;3122;48.208;11.174;2023-02-25T07:49:10;8.77;;;5.57;;
6177;SDS011;3122;48.208;11.174;2023-02-25T07:54:10;6.33;;;4.77;;
6177;SDS011;3122;48.208;11.174;2023-02-25T07:59:11;12.30;;;5.30;;
6177;SDS011;3122;48.208;11.174;2023-02-25T08:04:12;9.93;;;5.60;;
6177;SDS011;3122;48.208;11.174;2023-02-25T08:09:12;7.97;;;4.60;;
6177;SDS011;3122;48.208;11.174;2023-02-25T08:14:14;6.67;;;4.80;;
6177;SDS011;3122;48.208;11.174;2023-02-25T08:19:14;5.47;;;4.33;;
6177;SDS011;3122;48.208;11.174;2023-02-25T08:24:15;6.40;;;4.47;;
6177;SDS011;3122;48.208;11.174;2023-02-25T08:29:19;6.00;;;3.67;;
6177;SDS011;3122;48.208;11.174;2023-02-25T08:34:20;8.73;;;4.43;;
6177;SDS011;3122;48.208;11.174;2023-02-25T08:39:20;8.17;;;3.80;;
6177;SDS011;3122;48.208;11.174;2023-02-25T08:44:21;7.30;;;4.73;;
6177;SDS011;3122;48.208;11.174;2023-02-25T08:49:22;8.87;;;4.83;;
6177;SDS011;3122;48.208;11.174;2023-02-25T08:54:23;7.47;;;4.37;;
6177;SDS011;3122;48.208;11.174;2023-02-25T08:59:23;9.90;;;5.53;;
6177;SDS011;3122;48.208;11.174;2023-02-25T09:04:24;7.37;;;5.03;;
6177;SDS011;3122;48.208;11.174;2023-02-25T09:09:25;9.90;;;4.10;;
6177;SDS011;3122;48.208;11.174;2023-02-25T09:14:26;7.83;;;3.53;;
6177;SDS011;3122;48.208;11.174;2023-02-25T09:19:26;8.07;;;3.60;;
6177;SDS011;3122;48.208;11.174;2023-02-25T09:24:27;5.37;;;3.90;;
6177;SDS011;3122;48.208;11.174;2023-02-25T09:29:29;7.50;;;3.40;;
6177;SDS011;3122;48.208;11.174;2023-02-25T09:34:29;5.10;;;3.57;;
6177;SDS011;3122;48.208;11.174;2023-02-25T09:39:32;6.10;;;2.60;;
6177;SDS011;3122;48.208;11.174;2023-02-25T09:44:36;4.80;;;3.10;;
6177;SDS011;3122;48.208;11.174;2023-02-25T09:49:50;9.67;;;2.43;;
6177;SDS011;3122;48.208;11.174;2023-02-25T09:55:05;8.40;;;3.03;;
6177;SDS011;3122;48.208;11.174;2023-02-25T10:00:17;4.13;;;2.47;;
6177;SDS011;3122;48.208;11.174;2023-02-25T10:05:25;5.70;;;2.73;;
6177;SDS011;3122;48.208;11.174;2023-02-25T10:27:23;6.60;;;1.70;;
6177;SDS011;3122;48.208;11.174;2023-02-25T10:32:36;3.07;;;1.90;;
6177;SDS011;3122;48.208;11.174;2023-02-25T10:37:38;2.60;;;1.70;;
6177;SDS011;3122;48.208;11.174;2023-02-25T10:42:38;2.83;;;1.47;;
6177;SDS011;3122;48.208;11.174;2023-02-25T10:47:40;1.63;;;1.43;;
6177;SDS011;3122;48.208;11.174;2023-02-25T10:58:30;2.13;;;1.50;;
6177;SDS011;3122;48.208;11.174;2023-02-25T11:03:39;5.23;;;1.70;;
6177;SDS011;3122;48.208;11.174;2023-02-25T11:09:03;4.37;;;2.30;;
6177;SDS011;3122;48.208;11.174;2023-02-25T11:14:16;11.97;;;4.07;;
6177;SDS011;3122;48.208;11.174;2023-02-25T11:19:24;9.87;;;3.77;;
6177;SDS011;3122;48.208;11.174;2023-02-25T11:29:36;9.43;;;3.40;;
6177;SDS011;3122;48.208;11.174;2023-02-25T11:34:45;1.60;;;1.47;;
6177;SDS011;3122;48.208;11.174;2023-02-25T11:39:55;8.80;;;2.30;;
6177;SDS011;3122;48.208;11.174;2023-02-25T11:44:59;2.43;;;1.80;;
6177;SDS011;3122;48.208;11.174;2023-02-25T11:50:18;7.13;;;2.87;;
6177;SDS011;3122;48.208;11.174;2023-02-25T12:37:25;1.83;;;1.73;;
6177;SDS011;3122;48.208;11.174;2023-02-25T12:42:44;2.60;;;1.70;;
6177;SDS011;3122;48.208;11.174;2023-02-25T12:53:20;2.40;;;2.20;;
6177;SDS011;3122;48.208;11.174;2023-02-25T13:19:35;6.83;;;3.00;;
6177;SDS011;3122;48.208;11.174;2023-02-25T13:24:58;2.43;;;1.73;;
6177;SDS011;3122;48.208;11.174;2023-02-25T14:01:41;2.93;;;1.90;;
6177;SDS011;3122;48.208;11.174;2023-02-25T14:07:08;2.33;;;2.03;;
6177;SDS011;3122;48.208;11.174;2023-02-25T14:23:15;2.40;;;1.87;;
6177;SDS011;3122;48.208;11.174;2023-02-25T14:44:17;3.50;;;2.17;;
6177;SDS011;3122;48.208;11.174;2023-02-25T14:49:38;2.50;;;2.30;;
6177;SDS011;3122;48.208;11.174;2023-02-25T15:06:16;2.10;;;1.90;;
6177;SDS011;3122;48.208;11.174;2023-02-25T15:11:23;6.00;;;2.43;;
6177;SDS011;3122;48.208;11.174;2023-02-25T15:16:44;1.83;;;1.53;;
6177;SDS011;3122;48.208;11.174;2023-02-25T15:22:25;2.83;;;1.87;;
6177;SDS011;3122;48.208;11.174;2023-02-25T15:27:31;2.90;;;2.40;;
6177;SDS011;3122;48.208;11.174;2023-02-25T15:32:48;2.23;;;1.53;;
6177;SDS011;3122;48.208;11.174;2023-02-25T15:42:56;2.37;;;2.17;;
6177;SDS011;3122;48.208;11.174;2023-02-25T16:08:43;3.20;;;2.60;;
6177;SDS011;3122;48.208;11.174;2023-02-25T16:14:02;2.87;;;2.60;;
6177;SDS011;3122;48.208;11.174;2023-02-25T16:19:06;2.70;;;2.40;;
6177;SDS011;3122;48.208;11.174;2023-02-25T16:24:11;5.43;;;2.40;;
6177;SDS011;3122;48.208;11.174;2023-02-25T16:39:31;4.03;;;2.60;;
6177;SDS011;3122;48.208;11.174;2023-02-25T16:44:36;4.17;;;2.80;;
6177;SDS011;3122;48.208;11.174;2023-02-25T16:49:38;3.03;;;2.53;;
6177;SDS011;3122;48.208;11.174;2023-02-25T16:54:45;5.30;;;4.30;;
6177;SDS011;3122;48.208;11.174;2023-02-25T16:59:50;9.33;;;4.80;;
6177;SDS011;3122;48.208;11.174;2023-02-25T17:10:42;4.57;;;3.13;;
6177;SDS011;3122;48.208;11.174;2023-02-25T17:15:48;3.83;;;3.00;;
6177;SDS011;3122;48.208;11.174;2023-02-25T17:20:50;4.80;;;3.40;;
6177;SDS011;3122;48.208;11.174;2023-02-25T17:26:03;5.50;;;3.67;;
6177;SDS011;3122;48.208;11.174;2023-02-25T17:36:08;8.00;;;4.00;;
6177;SDS011;3122;48.208;11.174;2023-02-25T17:41:14;1.80;;;1.70;;
6177;SDS011;3122;48.208;11.174;2023-02-25T17:46:23;25.20;;;12.17;;
6177;SDS011;3122;48.208;11.174;2023-02-25T17:51:37;2.00;;;1.83;;
6177;SDS011;3122;48.208;11.174;2023-02-25T17:56:37;1.60;;;1.50;;
6177;SDS011;3122;48.208;11.174;2023-02-25T18:06:54;1.50;;;1.40;;
6177;SDS011;3122;48.208;11.174;2023-02-25T18:11:55;1.43;;;1.33;;
6177;SDS011;3122;48.208;11.174;2023-02-25T18:16:58;2.03;;;1.50;;
6177;SDS011;3122;48.208;11.174;2023-02-25T18:22:00;1.90;;;1.80;;
6177;SDS011;3122;48.208;11.174;2023-02-25T18:32:25;3.80;;;2.93;;
6177;SDS011;3122;48.208;11.174;2023-02-25T18:37:26;4.10;;;3.67;;
6177;SDS011;3122;48.208;11.174;2023-02-25T18:42:31;5.00;;;4.30;;
6177;SDS011;3122;48.208;11.174;2023-02-25T18:47:32;2.87;;;2.40;;
6177;SDS011;3122;48.208;11.174;2023-02-25T18:52:32;3.70;;;2.50;;
6177;SDS011;3122;48.208;11.174;2023-02-25T18:57:33;4.53;;;3.87;;
6177;SDS011;3122;48.208;11.174;2023-02-25T19:02:34;6.87;;;3.87;;
6177;SDS011;3122;48.208;11.174;2023-02-25T19:07:56;2.47;;;2.27;;
6177;SDS011;3122;48.208;11.174;2023-02-25T19:13:04;3.57;;;2.77;;
6177;SDS011;3122;48.208;11.174;2023-02-25T19:18:10;2.13;;;1.93;;
6177;SDS011;3122;48.208;11.174;2023-02-25T19:23:13;2.60;;;2.40;;
6177;SDS011;3122;48.208;11.174;2023-02-25T19:28:15;3.73;;;3.40;;
6177;SDS011;3122;48.208;11.174;2023-02-25T19:33:15;4.97;;;3.40;;
6177;SDS011;3122;48.208;11.174;2023-02-25T19:38:17;3.33;;;2.63;;
6177;SDS011;3122;48.208;11.174;2023-02-25T19:43:19;3.93;;;2.30;;
6177;SDS011;3122;48.208;11.174;2023-02-25T19:48:19;3.00;;;2.63;;
6177;SDS011;3122;48.208;11.174;2023-02-25T19:53:20;2.37;;;2.17;;
6177;SDS011;3122;48.208;11.174;2023-02-25T19:58:21;2.60;;;2.30;;
6177;SDS011;3122;48.208;11.174;2023-02-25T20:03:21;2.10;;;2.00;;
6177;SDS011;3122;48.208;11.174;2023-02-25T20:08:22;2.83;;;2.63;;
6177;SDS011;3122;48.208;11.174;2023-02-25T20:13:23;4.00;;;3.30;;
6177;SDS011;3122;48.208;11.174;2023-02-25T20:18:23;8.57;;;4.10;;
6177;SDS011;3122;48.208;11.174;2023-02-25T20:23:24;3.20;;;2.20;;
6177;SDS011;3122;48.208;11.174;2023-02-25T20:28:24;2.57;;;2.37;;
6177;SDS011;3122;48.208;11.174;2023-02-25T20:33:25;3.97;;;2.43;;
6177;SDS011;3122;48.208;11.174;2023-02-25T20:38:34;2.30;;;2.10;;
6177;SDS011;3122;48.208;11.174;2023-02-25T20:43:39;2.70;;;2.50;;
6177;SDS011;3122;48.208;11.174;2023-02-25T20:48:39;4.53;;;3.10;;
6177;SDS011;3122;48.208;11.174;2023-02-25T20:53:40;4.60;;;3.43;;
6177;SDS011;3122;48.208;11.174;2023-02-25T20:58:41;6.47;;;5.03;;
6177;SDS011;3122;48.208;11.174;2023-02-25T21:03:41;7.07;;;4.37;;
6177;SDS011;3122;48.208;11.174;2023-02-25T21:08:42;12.60;;;7.00;;
6177;SDS011;3122;48.208;11.174;2023-02-25T21:13:42;12.00;;;7.47;;
6177;SDS011;3122;48.208;11.174;2023-02-25T21:18:46;4.87;;;4.03;;
6177;SDS011;3122;48.208;11.174;2023-02-25T21:23:47;4.47;;;3.97;;
6177;SDS011;3122;48.208;11.174;2023-02-25T21:28:50;4.20;;;3.80;;
6177;SDS011;3122;48.208;11.174;2023-02-25T21:33:51;3.83;;;3.43;;
6177;SDS011;3122;48.208;11.174;2023-02-25T21:38:52;3.70;;;3.40;;
6177;SDS011;3122;48.208;11.174;2023-02-25T21:43:53;2.90;;;2.67;;
6177;SDS011;3122;48.208;11.174;2023-02-25T21:48:56;4.63;;;3.20;;
6177;SDS011;3122;48.208;11.174;2023-02-25T21:53:57;4.10;;;3.20;;
6177;SDS011;3122;48.208;11.174;2023-02-25T21:59:00;3.87;;;3.57;;
6177;SDS011;3122;48.208;11.174;2023-02-25T22:04:02;3.50;;;3.20;;
6177;SDS011;3122;48.208;11.174;2023-02-25T22:09:03;3.77;;;3.20;;
6177;SDS011;3122;48.208;11.174;2023-02-25T22:14:06;5.50;;;3.60;;
6177;SDS011;3122;48.208;11.174;2023-02-25T22:19:07;3.67;;;3.37;;
6177;SDS011;3122;48.208;11.174;2023-02-25T22:24:08;3.10;;;2.80;;
6177;SDS011;3122;48.208;11.174;2023-02-25T22:29:08;4.63;;;3.87;;
6177;SDS011;3122;48.208;11.174;2023-02-25T22:34:09;4.63;;;3.57;;
6177;SDS011;3122;48.208;11.174;2023-02-25T22:39:10;4.27;;;3.00;;
6177;SDS011;3122;48.208;11.174;2023-02-25T22:44:10;3.03;;;2.73;;
6177;SDS011;3122;48.208;11.174;2023-02-25T22:49:11;2.90;;;2.70;;
6177;SDS011;3122;48.208;11.174;2023-02-25T22:54:13;2.97;;;2.60;;
6177;SDS011;3122;48.208;11.174;2023-02-25T22:59:15;5.80;;;3.00;;
6177;SDS011;3122;48.208;11.174;2023-02-25T23:04:16;2.93;;;2.67;;
6177;SDS011;3122;48.208;11.174;2023-02-25T23:09:16;3.97;;;2.77;;
6177;SDS011;3122;48.208;11.174;2023-02-25T23:14:17;4.63;;;3.00;;
6177;SDS011;3122;48.208;11.174;2023-02-25T23:19:18;2.87;;;2.50;;
6177;SDS011;3122;48.208;11.174;2023-02-25T23:24:20;3.73;;;3.00;;
6177;SDS011;3122;48.208;11.174;2023-02-25T23:29:21;4.43;;;3.83;;
6177;SDS011;3122;48.208;11.174;2023-02-25T23:34:22;4.73;;;3.50;;
6177;SDS011;3122;48.208;11.174;2023-02-25T23:39:23;3.17;;;2.70;;
6177;SDS011;3122;48.208;11.174;2023-02-25T23:44:24;3.50;;;3.20;;
6177;SDS011;3122;48.208;11.174;2023-02-25T23:49:25;3.50;;;3.20;;
6177;SDS011;3122;48.208;11.174;2023-02-25T23:54:26;3.00;;;2.80;;
6177;SDS011;3122;48.208;11.174;2023-02-25T23:59:26;4.20;;;2.70;;
